Rock Hill, New York
Current Conditions -  °F | °C
As of 5:35 PM on Monday 24 Nov 2014 (Local Time) from KMSV Reporting Station
Few Clouds Few Clouds  
Wind Chill: 59°   Ceiling: Unl
Heat Index: 59°   Visibility: 10mi
Dew Point: 52°   Wind: 12mph
Humidity: 77%   Direction: 200°SSW
Pressure: 29.61"   Gusts: 21mph
Location:  41.63°N, 74.6°W
Report Text: KMSV 242235Z AUTO 20010G18KT 10SM FEW030 15/11 A2961 RMK AO1
Loading
Personal Weather Stations






























Interactive Weather Map New forecast layout! Learn more

10-Day Weather Forecast

Advertisements
Track Severe Weather on mobile